Long Hua — VRFR5 — position and weather

sailwx.info

Track history (hours):
 
Tides and Currents Weather Stations Pressure Air Temp Water Temp Dewpoint Dewpoint Depression Visibility Wind Speed Wind Dir Waves Ship Positions

Long Hua

Last reported at 2014-Oct-11 07:11 UTC. Time now 2014-Oct-24 09:40 UTC.
Position N 29°57' W 090°19'.
Warning: this ship's position is 13 days out of date.

Length 180 m; draft 10.4 m.

MMSI: 477622800.

Date/timePositionNaut miles runAvg speedWind from/ knotsBaromVisibWave heightAir tempDewpointWater temp
2014-Oct-11 07:11N 29°57' W 090°19'0 0.0
2014-Oct-11 05:16N 29°56' W 090°19'0 0.0
2014-Oct-11 03:16N 29°56' W 090°19'21 0.5
2014-Oct-09 12:11N 30°01' W 090°43'0 0.0
2014-Oct-09 11:29N 30°01' W 090°43'0 0.0
2014-Oct-09 10:29N 30°01' W 090°43'0 0.0
2014-Oct-09 09:32N 30°01' W 090°43'0 0.0
2014-Oct-09 08:29N 30°01' W 090°43'0 0.0
2014-Oct-09 07:32N 30°01' W 090°43'0 0.0
2014-Oct-09 06:26N 30°01' W 090°43'0 0.0
2014-Oct-09 05:32N 30°01' W 090°43'0 0.0
2014-Oct-09 04:29N 30°01' W 090°43'0 0.0
2014-Oct-09 03:23N 30°01' W 090°43'0 0.0
2014-Oct-09 02:17N 30°01' W 090°43'0 0.0
2014-Oct-09 01:29N 30°01' W 090°43'0 0.0
2014-Oct-09 00:29N 30°01' W 090°43'0 0.0
2014-Oct-08 23:29N 30°01' W 090°43'0 0.0
2014-Oct-08 22:29N 30°01' W 090°43'0 0.0
2014-Oct-08 10:32N 30°01' W 090°43'0 0.0
2014-Oct-08 08:17N 30°01' W 090°43'0 0.0
2014-Oct-08 07:32N 30°01' W 090°43'0 0.0
2014-Oct-08 06:32N 30°01' W 090°43'0 0.0
2014-Oct-08 05:11N 30°01' W 090°43'0 0.0
2014-Oct-08 04:23N 30°01' W 090°43'0 0.0
2014-Oct-08 03:32N 30°01' W 090°43'1 0.1
2014-Oct-07 12:26N 30°02' W 090°42'0 0.0
2014-Oct-07 11:32N 30°02' W 090°42'0 0.0
2014-Oct-07 10:29N 30°02' W 090°42'0 0.0
2014-Oct-07 09:29N 30°02' W 090°42'0 0.0
2014-Oct-07 08:32N 30°02' W 090°42'0 0.0
2014-Oct-07 07:32N 30°02' W 090°42'0 0.0
2014-Oct-07 06:32N 30°02' W 090°42'0 0.0
2014-Oct-07 05:29N 30°02' W 090°42'0 0.0
2014-Oct-07 04:29N 30°02' W 090°42'0 0.0
2014-Oct-07 03:26N 30°02' W 090°42'0 0.0
2014-Oct-07 02:14N 30°02' W 090°42'0 0.0
2014-Oct-07 01:32N 30°02' W 090°42'0 0.0
2014-Oct-07 00:32N 30°02' W 090°42'0 0.0
2014-Oct-06 23:32N 30°02' W 090°42'10 1.0
2014-Oct-06 13:33N 30°03' W 090°31'1 0.6
2014-Oct-06 12:19N 30°03' W 090°30'0 0.0
2014-Oct-06 11:31N 30°03' W 090°30'0 0.0
2014-Oct-06 10:31N 30°03' W 090°30'0 0.0
2014-Oct-06 09:31N 30°03' W 090°30'0 0.0
2014-Oct-06 08:31N 30°03' W 090°30'0 0.0
2014-Oct-06 07:28N 30°03' W 090°30'0 0.0
2014-Oct-06 06:28N 30°03' W 090°30'0 0.0
2014-Oct-06 05:28N 30°03' W 090°30'0 0.0
2014-Oct-06 04:31N 30°03' W 090°30'0 0.0
2014-Oct-06 03:31N 30°03' W 090°30'0 0.0
2014-Oct-06 02:31N 30°03' W 090°30'0 0.0
2014-Oct-06 01:28N 30°03' W 090°30'0 0.0
2014-Oct-06 00:31N 30°03' W 090°30'0 0.0
2014-Oct-05 23:25N 30°03' W 090°30'0 0.0
2014-Oct-05 22:31N 30°03' W 090°30'0 0.0
2014-Oct-05 21:31N 30°03' W 090°30'0 0.0
2014-Oct-05 20:31N 30°03' W 090°30'0 0.0
2014-Oct-05 19:31N 30°03' W 090°30'0 0.0
2014-Oct-05 18:31N 30°03' W 090°30'0 0.0
2014-Oct-05 17:28N 30°03' W 090°30'0 0.0
2014-Oct-05 16:31N 30°03' W 090°30'0 0.0
2014-Oct-05 15:31N 30°03' W 090°30'0 0.0
2014-Oct-05 14:31N 30°03' W 090°30'0 0.0
2014-Oct-05 13:19N 30°03' W 090°30'0 0.0
2014-Oct-05 12:31N 30°03' W 090°30'0 0.0
2014-Oct-05 11:31N 30°03' W 090°30'0 0.0
2014-Oct-05 10:28N 30°03' W 090°30'0 0.0
2014-Oct-05 09:31N 30°03' W 090°30'0 0.0
2014-Oct-05 08:31N 30°03' W 090°30'0 0.0
2014-Oct-05 07:31N 30°03' W 090°30'0 0.0
2014-Oct-05 06:28N 30°03' W 090°30'0 0.0
2014-Oct-05 05:31N 30°03' W 090°30'0 0.0
2014-Oct-05 04:31N 30°03' W 090°30'0 0.0
2014-Oct-05 03:31N 30°03' W 090°30'0 0.0
2014-Oct-05 02:31N 30°03' W 090°30'0 0.0
2014-Oct-05 01:31N 30°03' W 090°30'0 0.0
2014-Oct-05 00:25N 30°03' W 090°30'0 0.0
2014-Oct-04 23:04N 30°03' W 090°30'0 0.0
2014-Oct-04 22:31N 30°03' W 090°30'0 0.0
2014-Oct-04 21:31N 30°03' W 090°30'0 0.0
2014-Oct-04 20:31N 30°03' W 090°30'0 0.0
2014-Oct-04 19:28N 30°03' W 090°30'0 0.0
2014-Oct-04 18:31N 30°03' W 090°30'0 0.0
2014-Oct-04 17:31N 30°03' W 090°30'0 0.0
2014-Oct-04 16:31N 30°03' W 090°30'0 0.0
2014-Oct-04 15:31N 30°03' W 090°30'0 0.0
2014-Oct-04 14:31N 30°03' W 090°30'0 0.0
2014-Oct-04 13:31N 30°03' W 090°30'0 0.0
2014-Oct-04 12:31N 30°03' W 090°30'0 0.0
2014-Oct-04 11:28N 30°03' W 090°30'0 0.0
2014-Oct-04 10:31N 30°03' W 090°30'0 0.0
2014-Oct-04 09:31N 30°03' W 090°30'0 0.0
2014-Oct-04 08:31N 30°03' W 090°30'0 0.0
2014-Oct-04 07:31N 30°03' W 090°30'0 0.0
2014-Oct-04 06:28N 30°03' W 090°30'0 0.0
2014-Oct-04 05:31N 30°03' W 090°30'0 0.0
2014-Oct-04 04:31N 30°03' W 090°30'0 0.0
2014-Oct-04 03:31N 30°03' W 090°30'0 0.0
2014-Oct-04 02:31N 30°03' W 090°30'0 0.0
2014-Oct-04 01:31N 30°03' W 090°30'0 0.0
2014-Oct-04 00:31N 30°03' W 090°30'0 0.0
2014-Oct-03 23:31N 30°03' W 090°30'0 0.0
2014-Oct-03 22:31N 30°03' W 090°30'  
Track history (hours):
 
Tides and Currents Weather Stations Pressure Air Temp Water Temp Dewpoint Dewpoint Depression Visibility Wind Speed Wind Dir Waves Ship Positions

Long Hua

Last reported at 2014-Oct-11 07:11 UTC. Time now 2014-Oct-24 09:40 UTC.
Position N 29°57' W 090°19'.
Warning: this ship's position is 13 days out of date.

Length 180 m; draft 10.4 m.

MMSI: 477622800.

Date/timePositionNaut miles runAvg speedWind from/ knotsBaromVisibWave heightAir tempDewpointWater temp
2014-Oct-11 07:11N 29°57' W 090°19'0 0.0
2014-Oct-11 05:16N 29°56' W 090°19'0 0.0
2014-Oct-11 03:16N 29°56' W 090°19'21 0.5
2014-Oct-09 12:11N 30°01' W 090°43'0 0.0
2014-Oct-09 11:29N 30°01' W 090°43'0 0.0
2014-Oct-09 10:29N 30°01' W 090°43'0 0.0
2014-Oct-09 09:32N 30°01' W 090°43'0 0.0
2014-Oct-09 08:29N 30°01' W 090°43'0 0.0
2014-Oct-09 07:32N 30°01' W 090°43'0 0.0
2014-Oct-09 06:26N 30°01' W 090°43'0 0.0
2014-Oct-09 05:32N 30°01' W 090°43'0 0.0
2014-Oct-09 04:29N 30°01' W 090°43'0 0.0
2014-Oct-09 03:23N 30°01' W 090°43'0 0.0
2014-Oct-09 02:17N 30°01' W 090°43'0 0.0
2014-Oct-09 01:29N 30°01' W 090°43'0 0.0
2014-Oct-09 00:29N 30°01' W 090°43'0 0.0
2014-Oct-08 23:29N 30°01' W 090°43'0 0.0
2014-Oct-08 22:29N 30°01' W 090°43'0 0.0
2014-Oct-08 10:32N 30°01' W 090°43'0 0.0
2014-Oct-08 08:17N 30°01' W 090°43'0 0.0
2014-Oct-08 07:32N 30°01' W 090°43'0 0.0
2014-Oct-08 06:32N 30°01' W 090°43'0 0.0
2014-Oct-08 05:11N 30°01' W 090°43'0 0.0
2014-Oct-08 04:23N 30°01' W 090°43'0 0.0
2014-Oct-08 03:32N 30°01' W 090°43'1 0.1
2014-Oct-07 12:26N 30°02' W 090°42'0 0.0
2014-Oct-07 11:32N 30°02' W 090°42'0 0.0
2014-Oct-07 10:29N 30°02' W 090°42'0 0.0
2014-Oct-07 09:29N 30°02' W 090°42'0 0.0
2014-Oct-07 08:32N 30°02' W 090°42'0 0.0
2014-Oct-07 07:32N 30°02' W 090°42'0 0.0
2014-Oct-07 06:32N 30°02' W 090°42'0 0.0
2014-Oct-07 05:29N 30°02' W 090°42'0 0.0
2014-Oct-07 04:29N 30°02' W 090°42'0 0.0
2014-Oct-07 03:26N 30°02' W 090°42'0 0.0
2014-Oct-07 02:14N 30°02' W 090°42'0 0.0
2014-Oct-07 01:32N 30°02' W 090°42'0 0.0
2014-Oct-07 00:32N 30°02' W 090°42'0 0.0
2014-Oct-06 23:32N 30°02' W 090°42'10 1.0
2014-Oct-06 13:33N 30°03' W 090°31'1 0.6
2014-Oct-06 12:19N 30°03' W 090°30'0 0.0
2014-Oct-06 11:31N 30°03' W 090°30'0 0.0
2014-Oct-06 10:31N 30°03' W 090°30'0 0.0
2014-Oct-06 09:31N 30°03' W 090°30'0 0.0
2014-Oct-06 08:31N 30°03' W 090°30'0 0.0
2014-Oct-06 07:28N 30°03' W 090°30'0 0.0
2014-Oct-06 06:28N 30°03' W 090°30'0 0.0
2014-Oct-06 05:28N 30°03' W 090°30'0 0.0
2014-Oct-06 04:31N 30°03' W 090°30'0 0.0
2014-Oct-06 03:31N 30°03' W 090°30'0 0.0
2014-Oct-06 02:31N 30°03' W 090°30'0 0.0
2014-Oct-06 01:28N 30°03' W 090°30'0 0.0
2014-Oct-06 00:31N 30°03' W 090°30'0 0.0
2014-Oct-05 23:25N 30°03' W 090°30'0 0.0
2014-Oct-05 22:31N 30°03' W 090°30'0 0.0
2014-Oct-05 21:31N 30°03' W 090°30'0 0.0
2014-Oct-05 20:31N 30°03' W 090°30'0 0.0
2014-Oct-05 19:31N 30°03' W 090°30'0 0.0
2014-Oct-05 18:31N 30°03' W 090°30'0 0.0
2014-Oct-05 17:28N 30°03' W 090°30'0 0.0
2014-Oct-05 16:31N 30°03' W 090°30'0 0.0
2014-Oct-05 15:31N 30°03' W 090°30'0 0.0
2014-Oct-05 14:31N 30°03' W 090°30'0 0.0
2014-Oct-05 13:19N 30°03' W 090°30'0 0.0
2014-Oct-05 12:31N 30°03' W 090°30'0 0.0
2014-Oct-05 11:31N 30°03' W 090°30'0 0.0
2014-Oct-05 10:28N 30°03' W 090°30'0 0.0
2014-Oct-05 09:31N 30°03' W 090°30'0 0.0
2014-Oct-05 08:31N 30°03' W 090°30'0 0.0
2014-Oct-05 07:31N 30°03' W 090°30'0 0.0
2014-Oct-05 06:28N 30°03' W 090°30'0 0.0
2014-Oct-05 05:31N 30°03' W 090°30'0 0.0
2014-Oct-05 04:31N 30°03' W 090°30'0 0.0
2014-Oct-05 03:31N 30°03' W 090°30'0 0.0
2014-Oct-05 02:31N 30°03' W 090°30'0 0.0
2014-Oct-05 01:31N 30°03' W 090°30'0 0.0
2014-Oct-05 00:25N 30°03' W 090°30'0 0.0
2014-Oct-04 23:04N 30°03' W 090°30'0 0.0
2014-Oct-04 22:31N 30°03' W 090°30'0 0.0
2014-Oct-04 21:31N 30°03' W 090°30'0 0.0
2014-Oct-04 20:31N 30°03' W 090°30'0 0.0
2014-Oct-04 19:28N 30°03' W 090°30'0 0.0
2014-Oct-04 18:31N 30°03' W 090°30'0 0.0
2014-Oct-04 17:31N 30°03' W 090°30'0 0.0
2014-Oct-04 16:31N 30°03' W 090°30'0 0.0
2014-Oct-04 15:31N 30°03' W 090°30'0 0.0
2014-Oct-04 14:31N 30°03' W 090°30'0 0.0
2014-Oct-04 13:31N 30°03' W 090°30'0 0.0
2014-Oct-04 12:31N 30°03' W 090°30'0 0.0
2014-Oct-04 11:28N 30°03' W 090°30'0 0.0
2014-Oct-04 10:31N 30°03' W 090°30'0 0.0
2014-Oct-04 09:31N 30°03' W 090°30'0 0.0
2014-Oct-04 08:31N 30°03' W 090°30'0 0.0
2014-Oct-04 07:31N 30°03' W 090°30'0 0.0
2014-Oct-04 06:28N 30°03' W 090°30'0 0.0
2014-Oct-04 05:31N 30°03' W 090°30'0 0.0
2014-Oct-04 04:31N 30°03' W 090°30'0 0.0
2014-Oct-04 03:31N 30°03' W 090°30'0 0.0
2014-Oct-04 02:31N 30°03' W 090°30'0 0.0
2014-Oct-04 01:31N 30°03' W 090°30'0 0.0
2014-Oct-04 00:31N 30°03' W 090°30'0 0.0
2014-Oct-03 23:31N 30°03' W 090°30'0 0.0
2014-Oct-03 22:31N 30°03' W 090°30'  

Dump ship's entire track history